Time;durP1;ratioP1;P1;durP2;ratioP2;P2;SDS_P1;SDS_P2;PMS_P1;PMS_P2;Temp;Humidity;BMP_temperature;BMP_pressure;BME280_temperature;BME280_humidity;BME280_pressure;Samples;Min_cycle;Max_cycle;Signal;HPM_P1;HPM_P2
2023/03/09 00:00:10;;;;;;;10.75;4.53;;;;;;;;;;4949597;28;20062;-68
2023/03/09 00:02:36;;;;;;;9.77;4.40;;;;;;;;;;4956049;28;20136;-66
2023/03/09 00:05:06;;;;;;;8.63;3.78;;;;;;;;;;4975935;28;20054;-67
2023/03/09 00:07:33;;;;;;;11.20;4.30;;;;;;;;;;4999446;28;20050;-66
2023/03/09 00:10:03;;;;;;;12.20;5.10;;;;;;;;;;4979121;28;20050;-68
2023/03/09 00:12:31;;;;;;;10.88;4.60;;;;;;;;;;4934291;28;20125;-70
2023/03/09 00:14:58;;;;;;;10.95;4.72;;;;;;;;;;4969472;28;20074;-66
2023/03/09 00:17:25;;;;;;;12.70;4.93;;;;;;;;;;4981999;28;20059;-66
2023/03/09 00:20:00;;;;;;;12.25;4.78;;;;;;;;;;4973499;28;20138;-67
2023/03/09 00:22:28;;;;;;;10.98;4.78;;;;;;;;;;4971859;28;20173;-66
2023/03/09 00:24:59;;;;;;;11.23;4.97;;;;;;;;;;4984042;28;20053;-67
2023/03/09 00:27:25;;;;;;;13.07;4.97;;;;;;;;;;4997753;28;20417;-67
2023/03/09 00:29:52;;;;;;;15.63;5.32;;;;;;;;;;4990016;28;20081;-66
2023/03/09 00:32:18;;;;;;;11.07;4.90;;;;;;;;;;4957471;28;20081;-70
2023/03/09 00:34:45;;;;;;;11.82;4.78;;;;;;;;;;4972410;28;20058;-66
2023/03/09 00:37:11;;;;;;;10.30;5.00;;;;;;;;;;4966806;28;20076;-69
2023/03/09 00:39:39;;;;;;;13.77;5.47;;;;;;;;;;4963169;28;20125;-67
2023/03/09 00:42:08;;;;;;;11.18;4.93;;;;;;;;;;4972510;28;20102;-67
2023/03/09 00:44:34;;;;;;;;;;;;;;;;;;4996090;28;20058;-68
2023/03/09 00:47:01;;;;;;;12.70;4.60;;;;;;;;;;4984309;28;19968;-69
2023/03/09 00:49:32;;;;;;;13.82;5.35;;;;;;;;;;4943585;28;20050;-66
2023/03/09 00:51:58;;;;;;;12.85;5.00;;;;;;;;;;4966506;28;20061;-68
2023/03/09 00:54:25;;;;;;;13.85;5.25;;;;;;;;;;4983668;28;20061;-66
2023/03/09 00:56:53;;;;;;;12.98;5.43;;;;;;;;;;4985593;28;20088;-67
2023/03/09 00:59:22;;;;;;;14.07;5.72;;;;;;;;;;4964911;28;20146;-66
2023/03/09 01:01:48;;;;;;;13.63;5.40;;;;;;;;;;4982841;28;20069;-68
2023/03/09 01:04:15;;;;;;;12.23;4.95;;;;;;;;;;4974597;28;20054;-68
2023/03/09 01:06:41;;;;;;;11.77;4.93;;;;;;;;;;4997455;28;20047;-67
2023/03/09 01:09:09;;;;;;;15.30;5.32;;;;;;;;;;4950549;28;20051;-68
2023/03/09 01:11:36;;;;;;;13.63;5.97;;;;;;;;;;4978297;28;20053;-66
2023/03/09 01:14:05;;;;;;;14.95;5.32;;;;;;;;;;4984808;28;20049;-68
2023/03/09 01:16:32;;;;;;;12.77;5.10;;;;;;;;;;4996508;28;20153;-68
2023/03/09 01:18:58;;;;;;;12.57;5.63;;;;;;;;;;4991380;28;20054;-67
2023/03/09 01:21:25;;;;;;;12.25;5.45;;;;;;;;;;4975361;28;21308;-66
2023/03/09 01:23:53;;;;;;;13.68;5.40;;;;;;;;;;4974046;28;20069;-66
2023/03/09 01:26:20;;;;;;;12.32;5.00;;;;;;;;;;5003254;28;20142;-68
2023/03/09 01:28:47;;;;;;;12.45;5.07;;;;;;;;;;4959966;28;20066;-66
2023/03/09 01:31:18;;;;;;;11.27;4.85;;;;;;;;;;4907306;28;20057;-67
2023/03/09 01:33:44;;;;;;;13.05;5.30;;;;;;;;;;5013857;28;20061;-66
2023/03/09 01:36:13;;;;;;;16.15;5.80;;;;;;;;;;4995566;28;20054;-66
2023/03/09 01:38:40;;;;;;;12.07;4.97;;;;;;;;;;4998088;28;20113;-66
2023/03/09 01:41:06;;;;;;;15.88;6.05;;;;;;;;;;4973867;28;20088;-66
2023/03/09 01:43:36;;;;;;;13.52;5.43;;;;;;;;;;4998670;28;20129;-67
2023/03/09 01:46:32;;;;;;;14.20;5.68;;;;;;;;;;4989069;28;20076;-67
2023/03/09 01:49:10;;;;;;;19.08;5.70;;;;;;;;;;4995932;28;20072;-68
2023/03/09 01:51:38;;;;;;;13.75;5.35;;;;;;;;;;5001817;28;20085;-66
2023/03/09 01:54:06;;;;;;;15.73;6.00;;;;;;;;;;4974284;28;20053;-67
2023/03/09 01:56:34;;;;;;;16.35;6.20;;;;;;;;;;4994670;28;20144;-66
2023/03/09 01:59:08;;;;;;;14.20;5.03;;;;;;;;;;4953399;28;20050;-67
2023/03/09 02:01:37;;;;;;;14.13;5.03;;;;;;;;;;4975149;28;20047;-67
2023/03/09 02:04:09;;;;;;;12.27;4.93;;;;;;;;;;4986593;28;20588;-70
2023/03/09 02:06:36;;;;;;;15.38;5.32;;;;;;;;;;4990350;28;20058;-67
2023/03/09 02:09:10;;;;;;;15.10;5.82;;;;;;;;;;4975877;28;20131;-69
2023/03/09 02:11:38;;;;;;;13.52;5.43;;;;;;;;;;4970434;28;20053;-67
2023/03/09 02:14:04;;;;;;;10.90;4.82;;;;;;;;;;4988659;28;20073;-66
2023/03/09 02:16:31;;;;;;;13.07;5.32;;;;;;;;;;4973472;28;20127;-67
2023/03/09 02:18:58;;;;;;;14.13;5.05;;;;;;;;;;4978110;28;20057;-67
2023/03/09 02:21:34;;;;;;;16.23;5.88;;;;;;;;;;4975542;28;20060;-68
2023/03/09 02:24:04;;;;;;;14.65;5.72;;;;;;;;;;4982581;28;20046;-67
2023/03/09 02:26:33;;;;;;;16.63;6.15;;;;;;;;;;4977501;28;20054;-68
2023/03/09 02:29:02;;;;;;;14.80;5.47;;;;;;;;;;4995692;28;20054;-70
2023/03/09 02:31:32;;;;;;;15.98;6.20;;;;;;;;;;4979982;28;20052;-67
2023/03/09 02:33:58;;;;;;;15.38;5.63;;;;;;;;;;4981052;28;20064;-67
2023/03/09 02:36:31;;;;;;;14.43;5.90;;;;;;;;;;4974548;28;20333;-68
2023/03/09 02:39:08;;;;;;;15.50;5.05;;;;;;;;;;4980890;28;20107;-68
2023/03/09 02:41:35;;;;;;;13.93;5.47;;;;;;;;;;4976514;28;20058;-67
2023/03/09 02:44:06;;;;;;;14.18;5.40;;;;;;;;;;4993122;28;20065;-67
2023/03/09 02:46:35;;;;;;;14.45;5.95;;;;;;;;;;4998064;28;20050;-70
2023/03/09 02:49:03;;;;;;;13.93;5.38;;;;;;;;;;4983680;28;20049;-67
2023/03/09 02:51:36;;;;;;;14.57;5.43;;;;;;;;;;4944106;28;20058;-67
2023/03/09 02:54:02;;;;;;;16.40;5.20;;;;;;;;;;4968747;28;20142;-69
2023/03/09 02:56:29;;;;;;;15.95;5.72;;;;;;;;;;4963391;28;20071;-66
2023/03/09 02:58:58;;;;;;;15.70;5.78;;;;;;;;;;4993970;28;20064;-68
2023/03/09 03:01:26;;;;;;;13.52;5.57;;;;;;;;;;4963805;28;20046;-69
2023/03/09 03:03:52;;;;;;;15.10;5.88;;;;;;;;;;4954169;28;20063;-67
2023/03/09 03:06:19;;;;;;;13.98;5.22;;;;;;;;;;4970797;28;20142;-66
2023/03/09 03:08:45;;;;;;;14.35;5.95;;;;;;;;;;4948507;28;20709;-69
2023/03/09 03:11:12;;;;;;;15.25;5.65;;;;;;;;;;4979602;28;20129;-68
2023/03/09 03:13:39;;;;;;;16.48;5.90;;;;;;;;;;4982261;28;20153;-67
2023/03/09 03:16:06;;;;;;;15.75;6.50;;;;;;;;;;4948906;28;20085;-67
2023/03/09 03:18:36;;;;;;;13.35;5.20;;;;;;;;;;4990104;28;20140;-67
2023/03/09 03:21:02;;;;;;;15.52;5.85;;;;;;;;;;4973476;28;20085;-67
2023/03/09 03:23:31;;;;;;;13.82;6.00;;;;;;;;;;4976078;28;20045;-67
2023/03/09 03:26:03;;;;;;;15.65;5.57;;;;;;;;;;4926090;28;20124;-68
2023/03/09 03:28:30;;;;;;;12.55;5.22;;;;;;;;;;4990515;28;20120;-68
2023/03/09 03:30:56;;;;;;;13.63;5.55;;;;;;;;;;4988057;28;20404;-69
2023/03/09 03:33:23;;;;;;;13.32;5.25;;;;;;;;;;4968299;28;20093;-68
2023/03/09 03:35:51;;;;;;;14.45;5.88;;;;;;;;;;4979148;28;20042;-67
2023/03/09 03:38:18;;;;;;;14.25;5.75;;;;;;;;;;4988809;28;20080;-67
2023/03/09 03:40:44;;;;;;;14.82;5.82;;;;;;;;;;4967277;28;20049;-67
2023/03/09 03:43:11;;;;;;;14.52;5.75;;;;;;;;;;4986826;28;20057;-69
2023/03/09 03:45:38;;;;;;;12.85;5.00;;;;;;;;;;4980499;28;20057;-68
2023/03/09 03:48:05;;;;;;;15.88;6.07;;;;;;;;;;4965799;28;20056;-69
2023/03/09 03:50:34;;;;;;;14.70;5.72;;;;;;;;;;4964054;28;20061;-69
2023/03/09 03:53:02;;;;;;;14.45;5.85;;;;;;;;;;4972370;28;20050;-67
2023/03/09 03:55:28;;;;;;;14.77;5.78;;;;;;;;;;4962030;28;20119;-68
2023/03/09 03:57:56;;;;;;;13.50;5.20;;;;;;;;;;5007232;28;20053;-67
2023/03/09 04:00:25;;;;;;;14.20;5.27;;;;;;;;;;4970192;28;20124;-68
2023/03/09 04:02:58;;;;;;;17.27;6.55;;;;;;;;;;4988111;28;20296;-68
2023/03/09 04:05:24;;;;;;;13.95;4.95;;;;;;;;;;4932648;28;20058;-68
2023/03/09 04:07:52;;;;;;;12.50;5.43;;;;;;;;;;4977102;28;20050;-67
2023/03/09 04:10:28;;;;;;;15.02;6.05;;;;;;;;;;4970662;28;20050;-68
2023/03/09 04:12:55;;;;;;;14.52;5.57;;;;;;;;;;4997241;28;20057;-68
2023/03/09 04:15:24;;;;;;;15.38;5.38;;;;;;;;;;4976009;28;20045;-68
2023/03/09 04:17:53;;;;;;;12.75;5.22;;;;;;;;;;4967357;28;20056;-67
2023/03/09 04:20:23;;;;;;;12.93;5.05;;;;;;;;;;4983908;28;20062;-68
2023/03/09 04:22:50;;;;;;;14.52;5.63;;;;;;;;;;4980144;28;20061;-68
2023/03/09 04:25:16;;;;;;;13.38;5.03;;;;;;;;;;4967167;28;20120;-67
2023/03/09 04:27:53;;;;;;;11.85;5.18;;;;;;;;;;4992030;28;20069;-68
2023/03/09 04:30:24;;;;;;;13.93;5.43;;;;;;;;;;4990093;28;20136;-68
2023/03/09 04:32:50;;;;;;;15.48;5.90;;;;;;;;;;4991883;28;20265;-67
2023/03/09 04:35:17;;;;;;;17.60;6.03;;;;;;;;;;4971831;28;20050;-68
2023/03/09 04:37:44;;;;;;;14.20;5.70;;;;;;;;;;5004917;28;20269;-67
2023/03/09 04:40:11;;;;;;;13.63;5.07;;;;;;;;;;4991766;28;20050;-67
2023/03/09 04:42:38;;;;;;;12.57;4.85;;;;;;;;;;4962028;28;20061;-67
2023/03/09 04:45:06;;;;;;;13.32;5.25;;;;;;;;;;4995637;28;20053;-67
2023/03/09 04:47:33;;;;;;;12.88;4.72;;;;;;;;;;4997417;28;20100;-67
2023/03/09 04:49:59;;;;;;;14.88;5.43;;;;;;;;;;5000279;28;20042;-67
2023/03/09 04:52:26;;;;;;;11.85;5.25;;;;;;;;;;4988853;28;20053;-67
2023/03/09 04:54:54;;;;;;;12.23;4.95;;;;;;;;;;4947177;28;20061;-67
2023/03/09 04:57:22;;;;;;;13.37;5.17;;;;;;;;;;4985662;28;20054;-68
2023/03/09 04:59:49;;;;;;;13.07;4.53;;;;;;;;;;4998849;28;20208;-68
2023/03/09 05:02:17;;;;;;;15.60;5.50;;;;;;;;;;5000706;28;20062;-67
2023/03/09 05:04:45;;;;;;;14.93;5.30;;;;;;;;;;4975080;28;20050;-67
2023/03/09 05:07:14;;;;;;;13.45;5.65;;;;;;;;;;4978217;28;20058;-67
2023/03/09 05:09:41;;;;;;;12.98;5.40;;;;;;;;;;5001254;28;20054;-68
2023/03/09 05:12:07;;;;;;;17.63;6.18;;;;;;;;;;4976122;28;20155;-67
2023/03/09 05:14:34;;;;;;;16.52;5.60;;;;;;;;;;4950141;28;20580;-68
2023/03/09 05:17:00;;;;;;;16.98;6.13;;;;;;;;;;4969278;28;20057;-67
2023/03/09 05:19:28;;;;;;;14.63;5.65;;;;;;;;;;4996254;28;20053;-67
2023/03/09 05:21:57;;;;;;;14.50;5.38;;;;;;;;;;5000343;28;20069;-67
2023/03/09 05:24:23;;;;;;;12.48;5.72;;;;;;;;;;4960520;28;20724;-67
2023/03/09 05:26:50;;;;;;;15.23;5.30;;;;;;;;;;4926987;28;20053;-67
2023/03/09 05:29:17;;;;;;;14.82;5.60;;;;;;;;;;4980419;28;20049;-67
2023/03/09 05:31:45;;;;;;;14.48;5.78;;;;;;;;;;4986727;28;20136;-66
2023/03/09 05:34:12;;;;;;;15.43;5.75;;;;;;;;;;4965986;28;20064;-67
2023/03/09 05:36:40;;;;;;;16.00;5.40;;;;;;;;;;4954878;28;20100;-67
2023/03/09 05:39:09;;;;;;;17.33;5.93;;;;;;;;;;4986119;28;20041;-67
2023/03/09 05:41:36;;;;;;;14.27;5.53;;;;;;;;;;4981747;28;20373;-67
2023/03/09 05:44:02;;;;;;;14.95;5.80;;;;;;;;;;4989418;28;20053;-68
2023/03/09 05:46:29;;;;;;;15.63;5.75;;;;;;;;;;4966215;28;20054;-68
2023/03/09 05:49:00;;;;;;;16.80;6.72;;;;;;;;;;4983455;28;20081;-67
2023/03/09 05:51:30;;;;;;;13.43;5.15;;;;;;;;;;4994719;28;20058;-67
2023/03/09 05:53:58;;;;;;;16.20;5.82;;;;;;;;;;4997225;28;20054;-67
2023/03/09 05:56:28;;;;;;;14.45;5.82;;;;;;;;;;4973133;28;20064;-67
2023/03/09 05:58:56;;;;;;;11.85;5.10;;;;;;;;;;5004014;28;20057;-67
2023/03/09 06:01:25;;;;;;;13.73;5.38;;;;;;;;;;4977383;28;20065;-67
2023/03/09 06:03:51;;;;;;;16.98;6.10;;;;;;;;;;4983467;28;20136;-67
2023/03/09 06:06:18;;;;;;;14.90;6.05;;;;;;;;;;4966658;28;20057;-67
2023/03/09 06:08:46;;;;;;;13.65;5.28;;;;;;;;;;4993878;28;20054;-67
2023/03/09 06:11:15;;;;;;;17.98;6.10;;;;;;;;;;4974077;28;20159;-67
2023/03/09 06:13:41;;;;;;;14.55;5.68;;;;;;;;;;4954683;28;20050;-67
2023/03/09 06:16:11;;;;;;;18.05;6.10;;;;;;;;;;4960861;28;20089;-67
2023/03/09 06:18:38;;;;;;;16.38;5.90;;;;;;;;;;4972725;28;20077;-67
2023/03/09 06:21:05;;;;;;;14.82;5.60;;;;;;;;;;4975445;28;20082;-67
2023/03/09 06:23:35;;;;;;;18.02;6.40;;;;;;;;;;4988124;28;20064;-67
2023/03/09 06:26:03;;;;;;;15.82;5.55;;;;;;;;;;4981856;28;20101;-67
2023/03/09 06:28:36;;;;;;;15.50;5.53;;;;;;;;;;4973113;28;20058;-68
2023/03/09 06:31:06;;;;;;;14.70;5.85;;;;;;;;;;4983084;28;20050;-66
2023/03/09 06:33:35;;;;;;;13.32;5.60;;;;;;;;;;4970070;28;20061;-67
2023/03/09 06:36:03;;;;;;;12.52;4.93;;;;;;;;;;4939819;28;20145;-67
2023/03/09 06:38:34;;;;;;;14.60;5.57;;;;;;;;;;4946634;28;20062;-67
2023/03/09 06:41:05;;;;;;;13.73;5.35;;;;;;;;;;4991019;28;20062;-67
2023/03/09 06:43:36;;;;;;;12.20;5.45;;;;;;;;;;4965634;28;20050;-68
2023/03/09 06:46:08;;;;;;;15.07;5.65;;;;;;;;;;4931927;28;20058;-66
2023/03/09 06:48:34;;;;;;;15.93;6.07;;;;;;;;;;4985507;28;20057;-67
2023/03/09 06:51:07;;;;;;;15.65;5.78;;;;;;;;;;4966221;28;20054;-66
2023/03/09 06:53:36;;;;;;;15.90;6.00;;;;;;;;;;5002630;28;20077;-67
2023/03/09 06:56:02;;;;;;;15.68;5.70;;;;;;;;;;4918249;28;20069;-66
2023/03/09 06:58:30;;;;;;;16.38;6.10;;;;;;;;;;4916705;28;20054;-66
2023/03/09 07:00:59;;;;;;;15.55;5.63;;;;;;;;;;4980597;28;20109;-68
2023/03/09 07:03:25;;;;;;;19.25;6.47;;;;;;;;;;4984170;28;20061;-68
2023/03/09 07:05:58;;;;;;;13.93;5.55;;;;;;;;;;4963530;28;20053;-68
2023/03/09 07:08:25;;;;;;;13.02;5.05;;;;;;;;;;4994629;28;20061;-68
2023/03/09 07:10:54;;;;;;;11.98;5.07;;;;;;;;;;4996433;28;20152;-68
2023/03/09 07:13:21;;;;;;;14.40;5.65;;;;;;;;;;4972585;28;20064;-68
2023/03/09 07:15:47;;;;;;;15.40;5.70;;;;;;;;;;4947830;28;20058;-68
2023/03/09 07:18:16;;;;;;;;;;;;;;;;;;4975634;28;20107;-69
2023/03/09 07:20:57;;;;;;;11.38;4.53;;;;;;;;;;4986350;28;19925;-69
2023/03/09 07:23:25;;;;;;;14.23;5.43;;;;;;;;;;4966063;28;20128;-68
2023/03/09 07:25:54;;;;;;;16.20;5.60;;;;;;;;;;4952624;28;20062;-68
2023/03/09 07:28:32;;;;;;;13.95;5.18;;;;;;;;;;4970845;28;20329;-68
2023/03/09 07:30:58;;;;;;;15.75;5.57;;;;;;;;;;4972257;28;20070;-68
2023/03/09 07:33:27;;;;;;;15.05;5.07;;;;;;;;;;5000630;28;20058;-68
2023/03/09 07:35:54;;;;;;;14.55;4.90;;;;;;;;;;4970958;28;20152;-68
2023/03/09 07:38:25;;;;;;;14.13;5.47;;;;;;;;;;4990131;28;20061;-68
2023/03/09 07:41:02;;;;;;;15.65;5.90;;;;;;;;;;4996523;28;20069;-69
2023/03/09 07:43:30;;;;;;;13.98;5.55;;;;;;;;;;5001407;28;20050;-68
2023/03/09 07:45:57;;;;;;;16.83;5.93;;;;;;;;;;4941789;28;20050;-68
2023/03/09 07:48:30;;;;;;;14.32;5.68;;;;;;;;;;4969644;28;20524;-68
2023/03/09 07:50:59;;;;;;;12.55;5.32;;;;;;;;;;4989656;28;20129;-68
2023/03/09 07:53:25;;;;;;;14.32;5.18;;;;;;;;;;4991102;28;20049;-68
2023/03/09 07:55:56;;;;;;;14.30;5.97;;;;;;;;;;4991708;28;20155;-67
2023/03/09 07:58:24;;;;;;;16.45;5.97;;;;;;;;;;4995469;28;20096;-68
2023/03/09 08:00:54;;;;;;;18.10;6.27;;;;;;;;;;4974685;28;20088;-68
2023/03/09 08:03:23;;;;;;;15.55;5.95;;;;;;;;;;4952477;28;20077;-68
2023/03/09 08:06:00;;;;;;;;;;;;;;;;;;;;;
2023/03/09 08:08:27;;;;;;;14.55;5.18;;;;;;;;;;5003983;28;20057;-69
2023/03/09 08:10:57;;;;;;;13.05;5.13;;;;;;;;;;4993187;28;20058;-68
2023/03/09 08:13:26;;;;;;;17.20;5.77;;;;;;;;;;4991432;28;20072;-67
2023/03/09 08:15:55;;;;;;;14.38;5.35;;;;;;;;;;4961051;28;20359;-68
2023/03/09 08:18:27;;;;;;;18.27;6.32;;;;;;;;;;4978079;28;20065;-66
2023/03/09 08:20:53;;;;;;;13.00;5.13;;;;;;;;;;4966198;28;20137;-67
2023/03/09 08:23:20;;;;;;;15.52;5.72;;;;;;;;;;4977170;28;20086;-66
2023/03/09 08:25:55;;;;;;;14.10;5.63;;;;;;;;;;4973176;28;20171;-65
2023/03/09 08:28:28;;;;;;;16.45;5.75;;;;;;;;;;4990504;28;20136;-66
2023/03/09 08:31:01;;;;;;;16.88;5.95;;;;;;;;;;4992078;28;20144;-66
2023/03/09 08:33:30;;;;;;;15.23;5.50;;;;;;;;;;5009841;28;20225;-65
2023/03/09 08:35:57;;;;;;;17.75;5.75;;;;;;;;;;4965685;28;20137;-66
2023/03/09 08:38:24;;;;;;;14.90;5.78;;;;;;;;;;4980901;28;20496;-66
2023/03/09 08:40:55;;;;;;;16.95;6.07;;;;;;;;;;5006043;28;20364;-66
2023/03/09 08:43:22;;;;;;;17.45;6.03;;;;;;;;;;4986235;28;20061;-66
2023/03/09 08:45:52;;;;;;;16.08;5.90;;;;;;;;;;4990549;28;20201;-66
2023/03/09 08:48:20;;;;;;;20.17;6.82;;;;;;;;;;4990222;28;21333;-65
2023/03/09 08:50:46;;;;;;;14.82;5.35;;;;;;;;;;4928289;28;20115;-66
2023/03/09 08:53:13;;;;;;;16.13;5.88;;;;;;;;;;4919146;28;20058;-66
2023/03/09 08:55:39;;;;;;;16.67;5.93;;;;;;;;;;4982399;28;20058;-65
2023/03/09 08:58:08;;;;;;;18.30;6.25;;;;;;;;;;4998744;28;20156;-66
2023/03/09 09:00:35;;;;;;;16.10;6.07;;;;;;;;;;4982517;28;20149;-65
2023/03/09 09:03:04;;;;;;;15.18;5.55;;;;;;;;;;4978690;28;20084;-65
2023/03/09 09:05:30;;;;;;;14.18;5.63;;;;;;;;;;4998427;28;20072;-65
2023/03/09 09:07:57;;;;;;;14.73;5.82;;;;;;;;;;4971879;28;20046;-66
2023/03/09 09:10:27;;;;;;;18.25;6.68;;;;;;;;;;5002732;28;20050;-65
2023/03/09 09:12:57;;;;;;;14.90;5.85;;;;;;;;;;4940040;28;20096;-66
2023/03/09 09:15:25;;;;;;;17.52;6.25;;;;;;;;;;4964017;28;20058;-66
2023/03/09 09:17:57;;;;;;;16.27;5.65;;;;;;;;;;4974977;28;20116;-66
2023/03/09 09:20:29;;;;;;;16.35;5.57;;;;;;;;;;4987285;28;21203;-65
2023/03/09 09:23:00;;;;;;;17.27;6.05;;;;;;;;;;4939410;28;20101;-66
2023/03/09 09:25:26;;;;;;;14.57;5.70;;;;;;;;;;4974211;28;20056;-66
2023/03/09 09:27:54;;;;;;;16.35;6.18;;;;;;;;;;4974500;28;20042;-66
2023/03/09 09:30:22;;;;;;;20.63;6.15;;;;;;;;;;4972095;28;20146;-66
2023/03/09 09:32:48;;;;;;;14.07;5.78;;;;;;;;;;4959979;28;20146;-68
2023/03/09 09:35:15;;;;;;;16.08;5.90;;;;;;;;;;4962925;28;20096;-68
2023/03/09 09:37:46;;;;;;;18.88;6.70;;;;;;;;;;4982192;28;20053;-68
2023/03/09 09:40:15;;;;;;;15.27;6.47;;;;;;;;;;4991645;28;20068;-68
2023/03/09 09:42:51;;;;;;;14.98;6.13;;;;;;;;;;4954760;28;20058;-68
2023/03/09 09:45:25;;;;;;;16.58;6.00;;;;;;;;;;4968345;28;20105;-67
2023/03/09 09:47:55;;;;;;;13.52;5.72;;;;;;;;;;5001566;28;20089;-66
2023/03/09 09:50:27;;;;;;;14.95;4.93;;;;;;;;;;4973966;28;20634;-66
2023/03/09 09:53:00;;;;;;;16.80;6.35;;;;;;;;;;5007813;28;20137;-66
2023/03/09 09:55:29;;;;;;;19.20;6.10;;;;;;;;;;4988982;28;20081;-66
2023/03/09 09:57:58;;;;;;;;;;;;;;;;;;4989146;28;20053;-66
2023/03/09 10:00:29;;;;;;;14.73;5.25;;;;;;;;;;4984085;28;19925;-66
2023/03/09 10:03:10;;;;;;;17.05;6.00;;;;;;;;;;4953040;28;20061;-65
2023/03/09 10:05:44;;;;;;;16.33;6.47;;;;;;;;;;4982255;28;20065;-66
2023/03/09 10:08:23;;;;;;;19.52;7.05;;;;;;;;;;4966286;28;20183;-66
2023/03/09 10:10:52;;;;;;;19.25;6.60;;;;;;;;;;4967130;28;20061;-65
2023/03/09 10:13:25;;;;;;;15.85;5.97;;;;;;;;;;4966320;28;20161;-65
2023/03/09 10:15:54;;;;;;;15.15;5.95;;;;;;;;;;5001469;28;20088;-66
2023/03/09 10:18:25;;;;;;;23.45;8.00;;;;;;;;;;4985842;28;20053;-66
2023/03/09 10:20:55;;;;;;;19.48;6.97;;;;;;;;;;4977665;28;20050;-65
2023/03/09 10:23:43;;;;;;;18.20;6.20;;;;;;;;;;4974165;28;20063;-65
2023/03/09 10:26:18;;;;;;;18.40;6.22;;;;;;;;;;4975339;28;20332;-65
2023/03/09 10:28:49;;;;;;;15.65;5.60;;;;;;;;;;4992867;28;20108;-65
2023/03/09 10:31:26;;;;;;;22.65;6.95;;;;;;;;;;4931386;28;20082;-65
2023/03/09 10:33:54;;;;;;;16.30;5.97;;;;;;;;;;4897839;29;20055;-66
2023/03/09 10:39:09;;;;;;;16.48;6.00;;;;;;;;;;4943595;28;19934;-66
2023/03/09 10:41:37;;;;;;;21.00;6.90;;;;;;;;;;4964511;28;20054;-66
2023/03/09 10:44:08;;;;;;;14.68;6.38;;;;;;;;;;4963594;28;20057;-66
2023/03/09 10:46:54;;;;;;;17.58;6.20;;;;;;;;;;4983802;28;20149;-66
2023/03/09 10:49:20;;;;;;;17.67;6.53;;;;;;;;;;4993455;28;20050;-65
2023/03/09 10:51:55;;;;;;;17.70;6.75;;;;;;;;;;4979975;28;20127;-66
2023/03/09 10:54:29;;;;;;;18.40;6.90;;;;;;;;;;4968443;28;20117;-66
2023/03/09 10:56:58;;;;;;;17.38;6.15;;;;;;;;;;4985590;28;20053;-65
2023/03/09 10:59:29;;;;;;;;;;;;;;;;;;4969245;28;20057;-65
2023/03/09 11:02:01;;;;;;;14.73;5.68;;;;;;;;;;4981422;28;19932;-66
2023/03/09 11:04:40;;;;;;;21.48;6.20;;;;;;;;;;4953426;28;20076;-65
2023/03/09 11:07:18;;;;;;;16.23;6.63;;;;;;;;;;4964630;28;20062;-66
2023/03/09 11:09:52;;;;;;;17.67;6.38;;;;;;;;;;4962597;28;20051;-65
2023/03/09 11:12:23;;;;;;;18.05;6.25;;;;;;;;;;4966730;28;20054;-66
2023/03/09 11:14:52;;;;;;;;;;;;;;;;;;4967157;28;20050;-65
2023/03/09 11:17:32;;;;;;;14.98;5.82;;;;;;;;;;4971089;28;19928;-66
2023/03/09 11:20:20;;;;;;;17.42;6.45;;;;;;;;;;4963531;28;20169;-66
2023/03/09 11:22:49;;;;;;;19.15;6.45;;;;;;;;;;4972721;28;20119;-66
2023/03/09 11:25:31;;;;;;;20.02;6.82;;;;;;;;;;4967325;28;20058;-67
2023/03/09 11:28:00;;;;;;;19.15;6.60;;;;;;;;;;4986611;28;20061;-67
2023/03/09 11:30:30;;;;;;;20.15;7.28;;;;;;;;;;4996699;28;20053;-66
2023/03/09 11:32:57;;;;;;;21.33;7.25;;;;;;;;;;4999082;28;20049;-68
2023/03/09 11:35:24;;;;;;;22.20;7.73;;;;;;;;;;4964579;28;20061;-68
2023/03/09 11:38:02;;;;;;;20.60;6.30;;;;;;;;;;4973662;28;20305;-68
2023/03/09 11:40:33;;;;;;;19.98;6.60;;;;;;;;;;4990749;28;20104;-67
2023/03/09 11:43:06;;;;;;;21.83;7.50;;;;;;;;;;4957780;28;20117;-68
2023/03/09 11:45:37;;;;;;;17.67;6.82;;;;;;;;;;4967093;28;20085;-66
2023/03/09 11:48:05;;;;;;;17.92;6.72;;;;;;;;;;4982718;28;20140;-67
2023/03/09 11:50:36;;;;;;;19.75;7.88;;;;;;;;;;4986914;28;20050;-67
2023/03/09 11:53:06;;;;;;;17.83;6.50;;;;;;;;;;4988837;28;20054;-67
2023/03/09 11:55:39;;;;;;;20.58;7.13;;;;;;;;;;4970992;28;20054;-67
2023/03/09 11:58:09;;;;;;;19.08;7.20;;;;;;;;;;4985943;28;20064;-67
2023/03/09 12:00:43;;;;;;;16.85;6.88;;;;;;;;;;4982346;28;20128;-68
2023/03/09 12:03:15;;;;;;;19.90;7.22;;;;;;;;;;4966064;28;20083;-67
2023/03/09 12:05:45;;;;;;;18.52;6.63;;;;;;;;;;4961089;28;20065;-68
2023/03/09 12:08:20;;;;;;;21.13;7.13;;;;;;;;;;4951057;28;20470;-68
2023/03/09 12:11:03;;;;;;;19.20;6.45;;;;;;;;;;4958372;28;20047;-69
2023/03/09 12:13:42;;;;;;;16.20;5.78;;;;;;;;;;4928603;28;20096;-69
2023/03/09 12:16:21;;;;;;;17.65;5.97;;;;;;;;;;4903881;28;20162;-68
2023/03/09 12:18:56;;;;;;;21.73;6.75;;;;;;;;;;4944086;28;20052;-68
2023/03/09 12:21:40;;;;;;;;;;;;;;;;;;;;;
2023/03/09 12:24:25;;;;;;;20.80;6.97;;;;;;;;;;4958216;28;20054;-68
2023/03/09 12:27:00;;;;;;;16.23;6.18;;;;;;;;;;4970669;28;20947;-68
2023/03/09 12:29:29;;;;;;;22.35;7.50;;;;;;;;;;4983291;28;20058;-68
2023/03/09 12:32:17;;;;;;;20.00;7.50;;;;;;;;;;4950750;28;20062;-68
2023/03/09 12:34:46;;;;;;;;;;;;;;;;;;4989005;28;20141;-67
2023/03/09 12:37:38;;;;;;;18.33;6.32;;;;;;;;;;4989635;28;20052;-67
2023/03/09 12:40:20;;;;;;;20.67;6.35;;;;;;;;;;4987073;28;20712;-67
2023/03/09 12:42:51;;;;;;;18.85;6.60;;;;;;;;;;4982805;28;20054;-68
2023/03/09 12:45:25;;;;;;;20.77;7.25;;;;;;;;;;4981959;28;20057;-67
2023/03/09 12:48:01;;;;;;;22.00;7.57;;;;;;;;;;4987366;28;20441;-68
2023/03/09 12:50:39;;;;;;;18.13;7.25;;;;;;;;;;4991280;28;20065;-67
2023/03/09 12:53:12;;;;;;;17.75;6.88;;;;;;;;;;4966059;28;20134;-67
2023/03/09 12:55:47;;;;;;;18.63;7.05;;;;;;;;;;4984898;28;20058;-68
2023/03/09 12:58:41;;;;;;;22.30;7.40;;;;;;;;;;4979179;28;20058;-67
2023/03/09 13:01:11;;;;;;;19.25;6.68;;;;;;;;;;4982295;28;20045;-68
2023/03/09 13:03:42;;;;;;;19.77;7.40;;;;;;;;;;4966770;28;20493;-67
2023/03/09 13:06:27;;;;;;;20.20;7.15;;;;;;;;;;4979603;28;21041;-68
2023/03/09 13:09:07;;;;;;;22.20;7.32;;;;;;;;;;4983574;28;20112;-67
2023/03/09 13:11:39;;;;;;;18.40;6.97;;;;;;;;;;4947947;28;20081;-68
2023/03/09 13:14:18;;;;;;;20.52;7.20;;;;;;;;;;4980629;28;20046;-67
2023/03/09 13:16:51;;;;;;;20.48;7.38;;;;;;;;;;4974620;28;20050;-67
2023/03/09 13:19:56;;;;;;;22.05;8.05;;;;;;;;;;4999831;28;20050;-68
2023/03/09 13:22:39;;;;;;;16.27;6.43;;;;;;;;;;4980977;28;20060;-67
2023/03/09 13:25:25;;;;;;;20.00;7.82;;;;;;;;;;4969756;28;20060;-67
2023/03/09 13:27:57;;;;;;;19.42;7.25;;;;;;;;;;4959734;28;20069;-68
2023/03/09 13:30:38;;;;;;;18.40;7.25;;;;;;;;;;4974634;28;20128;-68
2023/03/09 13:33:14;;;;;;;21.02;7.65;;;;;;;;;;4966592;28;20065;-67
2023/03/09 13:35:46;;;;;;;18.98;7.18;;;;;;;;;;4974603;28;20079;-67
2023/03/09 13:38:22;;;;;;;24.25;8.20;;;;;;;;;;4985926;28;20136;-67
2023/03/09 13:40:54;;;;;;;21.25;7.43;;;;;;;;;;4979738;28;20074;-67
2023/03/09 13:43:28;;;;;;;20.85;7.30;;;;;;;;;;4973668;28;20068;-67
2023/03/09 13:45:59;;;;;;;19.45;6.85;;;;;;;;;;4998110;28;20123;-67
2023/03/09 13:48:25;;;;;;;20.25;6.78;;;;;;;;;;4993291;28;20112;-67
2023/03/09 13:50:52;;;;;;;18.98;7.63;;;;;;;;;;4980330;28;20592;-66
2023/03/09 13:53:27;;;;;;;20.98;7.75;;;;;;;;;;4969799;28;20081;-67
2023/03/09 13:56:04;;;;;;;17.33;6.65;;;;;;;;;;4977651;28;20049;-67
2023/03/09 13:58:33;;;;;;;18.73;6.78;;;;;;;;;;4982990;28;20054;-67
2023/03/09 14:01:02;;;;;;;21.73;7.65;;;;;;;;;;4981197;28;20045;-67
2023/03/09 14:03:33;;;;;;;21.30;7.20;;;;;;;;;;4979021;28;20065;-67
2023/03/09 14:06:02;;;;;;;18.17;6.40;;;;;;;;;;4965470;28;20054;-69
2023/03/09 14:08:34;;;;;;;18.70;6.40;;;;;;;;;;4978051;28;20076;-68
2023/03/09 14:11:08;;;;;;;21.85;7.07;;;;;;;;;;4985010;28;20127;-68
2023/03/09 14:13:35;;;;;;;17.98;7.32;;;;;;;;;;4968311;28;20057;-68
2023/03/09 14:18:56;;;;;;;19.35;6.40;;;;;;;;;;4978681;28;20084;-67
2023/03/09 14:21:36;;;;;;;17.23;6.82;;;;;;;;;;4977227;28;20167;-68
2023/03/09 14:24:12;;;;;;;18.17;6.57;;;;;;;;;;4971664;28;20100;-67
2023/03/09 14:26:41;;;;;;;18.77;6.90;;;;;;;;;;4975387;28;20115;-68
2023/03/09 14:29:23;;;;;;;19.00;6.35;;;;;;;;;;4975694;28;20062;-68
2023/03/09 14:32:17;;;;;;;17.17;7.07;;;;;;;;;;4981882;28;20077;-68
2023/03/09 14:34:48;;;;;;;18.00;7.07;;;;;;;;;;4937147;28;20064;-68
2023/03/09 14:37:28;;;;;;;19.70;6.72;;;;;;;;;;4951470;28;20065;-67
2023/03/09 14:39:58;;;;;;;18.13;6.38;;;;;;;;;;4976391;28;20057;-68
2023/03/09 14:42:27;;;;;;;19.70;6.47;;;;;;;;;;4987870;28;20127;-67
2023/03/09 14:44:53;;;;;;;;;;;;;;;;;;4970055;28;20077;-68
2023/03/09 14:47:21;;;;;;;15.52;5.88;;;;;;;;;;4998691;28;19994;-67
2023/03/09 14:49:55;;;;;;;15.90;6.28;;;;;;;;;;4990875;28;20435;-68
2023/03/09 14:52:23;;;;;;;18.42;6.43;;;;;;;;;;4977131;28;20053;-68
2023/03/09 14:54:52;;;;;;;19.83;6.78;;;;;;;;;;4968915;28;20185;-68
2023/03/09 14:57:21;;;;;;;20.13;6.28;;;;;;;;;;4948738;28;20061;-68